Time;durP1;ratioP1;P1;durP2;ratioP2;P2;SDS_P1;SDS_P2;PMS_P1;PMS_P2;Temp;Humidity;BMP_temperature;BMP_pressure;BME280_temperature;BME280_humidity;BME280_pressure;Samples;Min_cycle;Max_cycle;Signal;HPM_P1;HPM_P2
2022/09/27 04:30:37;;;;;;;1.20;0.50;;;;;;;-145.06;100.00;60892.56;5965183;23;20356;-91
2022/09/27 04:33:16;;;;;;;0.68;0.50;;;;;;;-145.06;100.00;60892.56;5982171;23;20009;-94
2022/09/27 08:29:11;;;;;;;0.95;0.70;;;;;;;-145.06;100.00;60892.56;5968766;23;19904;-91
2022/09/27 08:36:52;;;;;;;0.70;0.52;;;;;;;-145.06;100.00;60892.56;5874419;23;20007;-92
2022/09/27 08:40:27;;;;;;;;;;;;;;;;;;;;;
2022/09/27 08:44:24;;;;;;;;;;;;;;;;;;;;;
2022/09/27 08:47:44;;;;;;;0.85;0.50;;;;;;;-145.06;100.00;60892.56;5836391;23;20026;-91
2022/09/27 08:54:44;;;;;;;0.73;0.50;;;;;;;-145.06;100.00;60892.56;5901670;23;19949;-92
2022/09/27 08:57:25;;;;;;;0.73;0.38;;;;;;;-145.06;100.00;60892.56;5873165;23;20003;-91
2022/09/27 09:00:13;;;;;;;;;;;;;;;-145.06;100.00;60892.56;5872891;23;20011;-93
2022/09/27 09:03:28;;;;;;;0.50;0.50;;;;;;;-145.06;100.00;60892.56;5919855;23;19904;-94
2022/09/27 09:13:53;;;;;;;1.08;0.55;;;;;;;-145.06;100.00;60892.56;5992763;23;20005;-94
2022/09/27 12:44:52;;;;;;;0.30;0.30;;;;;;;-145.06;100.00;60892.56;5927830;23;20111;-91
2022/09/27 12:59:01;;;;;;;0.32;0.30;;;;;;;-145.06;100.00;60892.56;5879629;23;20011;-90
2022/09/27 17:20:51;;;;;;;2.10;0.60;;;;;;;-145.06;100.00;60892.56;5946986;23;20032;-92
2022/09/27 17:26:43;;;;;;;0.77;0.43;;;;;;;-145.06;100.00;60892.56;5993681;23;20551;-92
2022/09/27 17:29:22;;;;;;;;;;;;;;;-145.06;100.00;60892.56;5984151;23;20009;-95
2022/09/27 17:32:01;;;;;;;0.40;0.35;;;;;;;-145.06;100.00;60892.56;5983979;23;19904;-90
2022/09/27 17:34:42;;;;;;;0.52;0.40;;;;;;;-145.06;100.00;60892.56;5982716;23;20001;-92
2022/09/27 17:37:21;;;;;;;0.32;0.30;;;;;;;-145.06;100.00;60892.56;5983132;23;20005;-90
2022/09/27 17:40:00;;;;;;;0.60;0.40;;;;;;;-145.06;100.00;60892.56;5983522;23;20009;-91
2022/09/27 17:42:39;;;;;;;1.17;0.50;;;;;;;-145.06;100.00;60892.56;5983075;23;20008;-90
2022/09/27 17:45:21;;;;;;;0.50;0.35;;;;;;;-145.06;100.00;60892.56;5983129;23;20009;-92
2022/09/27 17:51:01;;;;;;;0.88;0.47;;;;;;;-145.06;100.00;60892.56;5991938;23;20025;-94
2022/09/27 17:53:49;;;;;;;0.75;0.40;;;;;;;-145.06;100.00;60892.56;5983284;23;20381;-94
2022/09/27 17:56:31;;;;;;;0.50;0.40;;;;;;;-145.06;100.00;60892.56;5980962;23;20008;-90
2022/09/27 17:59:16;;;;;;;0.57;0.40;;;;;;;-145.06;100.00;60892.56;5981477;23;20306;-92
2022/09/27 18:01:56;;;;;;;0.50;0.40;;;;;;;-145.06;100.00;60892.56;5980931;23;20012;-92
2022/09/27 18:04:35;;;;;;;0.75;0.55;;;;;;;-145.06;100.00;60892.56;5981678;23;20005;-91
2022/09/27 18:07:15;;;;;;;0.40;0.40;;;;;;;-145.06;100.00;60892.56;5981680;23;20005;-91
2022/09/27 18:09:54;;;;;;;1.02;0.50;;;;;;;-145.06;100.00;60892.56;5981250;23;20491;-90
2022/09/27 18:12:34;;;;;;;2.03;0.50;;;;;;;-145.06;100.00;60892.56;5981083;23;20054;-91
2022/09/27 18:15:15;;;;;;;0.63;0.30;;;;;;;-145.06;100.00;60892.56;5980426;23;20029;-92
2022/09/27 18:17:56;;;;;;;0.52;0.35;;;;;;;-145.06;100.00;60892.56;5981997;23;20021;-91
2022/09/27 18:20:35;;;;;;;0.60;0.50;;;;;;;-145.06;100.00;60892.56;5982004;23;20317;-90
2022/09/27 18:23:14;;;;;;;0.70;0.47;;;;;;;-145.06;100.00;60892.56;5981675;23;20008;-92
2022/09/27 18:25:57;;;;;;;0.47;0.40;;;;;;;-145.06;100.00;60892.56;5982986;23;20060;-93
2022/09/27 18:28:39;;;;;;;1.02;0.57;;;;;;;-145.06;100.00;60892.56;5984854;23;20065;-94
2022/09/27 18:31:24;;;;;;;0.50;0.40;;;;;;;-145.06;100.00;60892.56;5981628;23;20056;-93
2022/09/27 18:34:04;;;;;;;0.55;0.40;;;;;;;-145.06;100.00;60892.56;5979653;23;20001;-93
2022/09/27 18:36:43;;;;;;;0.73;0.70;;;;;;;-145.06;100.00;60892.56;5979729;23;20013;-93
2022/09/27 18:39:22;;;;;;;1.20;0.73;;;;;;;-145.06;100.00;60892.56;5980228;23;20008;-93
2022/09/27 18:42:02;;;;;;;1.55;0.73;;;;;;;-145.06;100.00;60892.56;5980947;23;20080;-95
2022/09/27 18:44:43;;;;;;;0.70;0.70;;;;;;;-145.06;100.00;60892.56;5979984;23;20009;-95
2022/09/27 18:47:25;;;;;;;1.45;0.60;;;;;;;-145.06;100.00;60892.56;5981296;23;20324;-93
2022/09/27 18:50:05;;;;;;;1.02;0.60;;;;;;;-145.06;100.00;60892.56;5979527;23;20455;-94
2022/09/27 18:52:50;;;;;;;0.98;0.65;;;;;;;-145.06;100.00;60892.56;5979032;23;20182;-93
2022/09/27 18:55:30;;;;;;;1.40;0.70;;;;;;;-145.06;100.00;60892.56;5977345;23;20001;-94
2022/09/27 18:58:14;;;;;;;0.82;0.52;;;;;;;-145.06;100.00;60892.56;5978837;23;20084;-94
2022/09/27 19:01:03;;;;;;;0.65;0.50;;;;;;;-145.06;100.00;60892.56;5980773;23;20008;-94
2022/09/27 19:03:46;;;;;;;0.68;0.50;;;;;;;-145.06;100.00;60892.56;5979758;23;20313;-93
2022/09/27 19:06:26;;;;;;;0.40;0.40;;;;;;;-145.06;100.00;60892.56;5978282;23;20028;-93
2022/09/27 19:09:06;;;;;;;1.13;0.50;;;;;;;-145.06;100.00;60892.56;5979020;23;20036;-93
2022/09/27 19:11:45;;;;;;;1.67;0.50;;;;;;;-145.06;100.00;60892.56;5977829;23;20033;-93
2022/09/27 19:14:38;;;;;;;1.00;0.50;;;;;;;-145.06;100.00;60892.56;5979422;23;20005;-92
2022/09/27 19:17:18;;;;;;;0.80;0.60;;;;;;;-145.06;100.00;60892.56;5977928;23;20005;-93
2022/09/27 19:19:59;;;;;;;1.58;0.80;;;;;;;-145.06;100.00;60892.56;5978175;23;20080;-94
2022/09/27 19:22:39;;;;;;;0.60;0.50;;;;;;;-145.06;100.00;60892.56;5976875;23;20013;-92
2022/09/27 19:25:18;;;;;;;1.23;0.67;;;;;;;-145.06;100.00;60892.56;5977741;23;20005;-93
2022/09/27 19:28:00;;;;;;;1.13;0.70;;;;;;;-145.06;100.00;60892.56;5978818;23;20005;-93
2022/09/27 19:30:44;;;;;;;1.10;0.70;;;;;;;-145.06;100.00;60892.56;5978576;23;20084;-93
2022/09/27 19:33:23;;;;;;;1.15;0.50;;;;;;;-145.06;100.00;60892.56;5978581;23;20005;-93
2022/09/27 19:36:05;;;;;;;0.77;0.60;;;;;;;-145.06;100.00;60892.56;5978706;23;20009;-93
2022/09/27 19:38:48;;;;;;;1.00;0.60;;;;;;;-145.06;100.00;60892.56;5978467;23;20035;-95
2022/09/27 19:41:27;;;;;;;1.10;0.50;;;;;;;-145.06;100.00;60892.56;5977996;23;20036;-94
2022/09/27 19:44:07;;;;;;;0.75;0.60;;;;;;;-145.06;100.00;60892.56;5978483;23;20008;-93
2022/09/27 19:46:51;;;;;;;1.42;0.50;;;;;;;-145.06;100.00;60892.56;5978687;23;20325;-93
2022/09/27 19:49:36;;;;;;;0.73;0.45;;;;;;;-145.06;100.00;60892.56;5979004;23;20008;-93
2022/09/27 19:52:15;;;;;;;1.00;0.50;;;;;;;-145.06;100.00;60892.56;5978284;23;20013;-94
2022/09/27 19:55:00;;;;;;;0.63;0.50;;;;;;;-145.06;100.00;60892.56;5977800;23;20001;-94
2022/09/27 19:57:48;;;;;;;0.85;0.50;;;;;;;-145.06;100.00;60892.56;5978111;23;20000;-93
2022/09/27 20:00:31;;;;;;;0.82;0.40;;;;;;;-145.06;100.00;60892.56;5979316;23;20012;-92
2022/09/27 20:03:13;;;;;;;0.52;0.40;;;;;;;-145.06;100.00;60892.56;5978734;23;20005;-94
2022/09/27 20:06:31;;;;;;;1.02;0.40;;;;;;;-145.06;100.00;60892.56;5978162;23;20013;-93
2022/09/27 20:09:34;;;;;;;0.50;0.30;;;;;;;-145.06;100.00;60892.56;5978371;23;20005;-93
2022/09/27 20:12:21;;;;;;;2.10;0.40;;;;;;;-145.06;100.00;60892.56;5978264;23;20317;-93
2022/09/27 20:15:08;;;;;;;0.22;0.22;;;;;;;-145.06;100.00;60892.56;5958098;23;20012;-94
2022/09/27 20:17:48;;;;;;;0.65;0.40;;;;;;;-145.06;100.00;60892.56;5978235;23;20009;-93
2022/09/27 20:20:27;;;;;;;;;;;;;;;-145.06;100.00;60892.56;5950685;23;20013;-94
2022/09/27 20:23:07;;;;;;;1.30;0.57;;;;;;;-145.06;100.00;60892.56;5951214;23;19904;-92
2022/09/27 20:25:51;;;;;;;0.80;0.40;;;;;;;-145.06;100.00;60892.56;5950613;23;20001;-93
2022/09/27 20:28:34;;;;;;;1.00;0.40;;;;;;;-145.06;100.00;60892.56;5951785;23;20072;-93
2022/09/27 20:31:16;;;;;;;0.60;0.40;;;;;;;-145.06;100.00;60892.56;5951644;23;20009;-92
2022/09/27 20:33:56;;;;;;;0.93;0.47;;;;;;;-145.06;100.00;60892.56;5951184;23;20027;-93
2022/09/27 20:36:36;;;;;;;;;;;;;;;-145.06;100.00;60892.56;5951611;23;20009;-93
2022/09/27 20:39:16;;;;;;;0.95;0.60;;;;;;;-145.06;100.00;60892.56;5950713;23;20032;-93
2022/09/27 20:41:55;;;;;;;2.10;0.77;;;;;;;-145.06;100.00;60892.56;5951436;23;20005;-92
2022/09/27 20:44:34;;;;;;;0.80;0.40;;;;;;;-145.06;100.00;60892.56;5950168;23;20142;-94
2022/09/27 20:47:13;;;;;;;1.33;0.40;;;;;;;-145.06;100.00;60892.56;5950343;23;20009;-95
2022/09/27 20:49:52;;;;;;;0.77;0.50;;;;;;;-145.06;100.00;60892.56;5950229;23;20005;-93
2022/09/27 20:52:32;;;;;;;1.13;0.60;;;;;;;-145.06;100.00;60892.56;5949913;23;20010;-92
2022/09/27 20:55:11;;;;;;;;;;;;;;;-145.06;100.00;60892.56;5950756;23;20057;-93
2022/09/27 20:57:51;;;;;;;0.80;0.40;;;;;;;-145.06;100.00;60892.56;5949421;23;20046;-92
2022/09/27 21:00:30;;;;;;;;;;;;;;;-145.06;100.00;60892.56;5950719;23;20009;-94
2022/09/27 21:03:09;;;;;;;0.60;0.30;;;;;;;-145.06;100.00;60892.56;5949601;23;20288;-92
2022/09/27 21:05:53;;;;;;;0.28;0.28;;;;;;;-145.06;100.00;60892.56;5949492;23;20005;-91
2022/09/27 21:08:33;;;;;;;0.30;0.30;;;;;;;-145.06;100.00;60892.56;5950484;23;20033;-92
2022/09/27 21:11:14;;;;;;;0.30;0.20;;;;;;;-145.06;100.00;60892.56;5950090;23;20005;-92
2022/09/27 21:13:53;;;;;;;0.22;0.22;;;;;;;-145.06;100.00;60892.56;5949029;23;20385;-92
2022/09/27 21:16:34;;;;;;;1.00;0.20;;;;;;;-145.06;100.00;60892.56;5949391;23;20173;-92
2022/09/27 21:19:13;;;;;;;0.50;0.40;;;;;;;-145.06;100.00;60892.56;5949170;23;20013;-92
2022/09/27 21:21:52;;;;;;;0.20;0.20;;;;;;;-145.06;100.00;60892.56;5949939;23;20009;-93
2022/09/27 21:24:31;;;;;;;0.30;0.30;;;;;;;-145.06;100.00;60892.56;5948887;23;20006;-92
2022/09/27 21:27:10;;;;;;;0.20;0.20;;;;;;;-145.06;100.00;60892.56;5949329;23;20009;-92
2022/09/27 21:29:49;;;;;;;0.20;0.20;;;;;;;-145.06;100.00;60892.56;5950323;23;20151;-93
2022/09/27 21:32:29;;;;;;;0.35;0.30;;;;;;;-145.06;100.00;60892.56;5949432;23;20171;-92
2022/09/27 21:35:08;;;;;;;0.20;0.20;;;;;;;-145.06;100.00;60892.56;5950307;23;20005;-94
2022/09/27 21:37:48;;;;;;;0.30;0.30;;;;;;;-145.06;100.00;60892.56;5950225;23;20010;-93
2022/09/27 21:40:27;;;;;;;;;;;;;;;-145.06;100.00;60892.56;5950123;23;20005;-91
2022/09/27 21:43:06;;;;;;;0.15;0.15;;;;;;;-145.06;100.00;60892.56;5950301;23;20217;-91
2022/09/27 21:45:45;;;;;;;0.30;0.30;;;;;;;-145.06;100.00;60892.56;5950689;23;20595;-94
2022/09/27 21:48:24;;;;;;;0.10;0.10;;;;;;;-145.06;100.00;60892.56;5948950;23;20009;-93
2022/09/27 21:51:07;;;;;;;0.20;0.20;;;;;;;-145.06;100.00;60892.56;5949480;23;20009;-93
2022/09/27 21:53:51;;;;;;;0.30;0.30;;;;;;;-145.06;100.00;60892.56;5949969;23;20308;-92
2022/09/27 21:56:36;;;;;;;0.50;0.30;;;;;;;-145.06;100.00;60892.56;5949739;23;20452;-91
2022/09/27 21:59:16;;;;;;;0.20;0.20;;;;;;;-145.06;100.00;60892.56;5950193;23;20013;-92
2022/09/27 22:01:55;;;;;;;0.20;0.20;;;;;;;-145.06;100.00;60892.56;5949715;23;20037;-91
2022/09/27 22:04:35;;;;;;;0.27;0.27;;;;;;;-145.06;100.00;60892.56;5950609;23;20436;-93
2022/09/27 22:07:14;;;;;;;0.20;0.20;;;;;;;-145.06;100.00;60892.56;5949451;23;20005;-92
2022/09/27 22:09:54;;;;;;;0.40;0.30;;;;;;;-145.06;100.00;60892.56;5951168;23;20013;-93
2022/09/27 22:12:33;;;;;;;0.40;0.20;;;;;;;-145.06;100.00;60892.56;5952006;23;20013;-92
2022/09/27 22:15:12;;;;;;;0.27;0.27;;;;;;;-145.06;100.00;60892.56;5952846;23;20001;-93
2022/09/27 22:17:51;;;;;;;0.13;0.13;;;;;;;-145.06;100.00;60892.56;5951087;23;20233;-91
2022/09/27 22:20:30;;;;;;;0.20;0.20;;;;;;;-145.06;100.00;60892.56;5950582;23;20010;-92
2022/09/27 22:23:10;;;;;;;0.20;0.20;;;;;;;-145.06;100.00;60892.56;5951238;23;20009;-93
2022/09/27 22:25:49;;;;;;;0.28;0.28;;;;;;;-145.06;100.00;60892.56;5950678;23;20009;-92
2022/09/27 22:28:29;;;;;;;0.40;0.30;;;;;;;-145.06;100.00;60892.56;5951325;23;20436;-92
2022/09/27 22:31:10;;;;;;;0.28;0.28;;;;;;;-145.06;100.00;60892.56;5951324;23;20005;-92
2022/09/27 22:33:57;;;;;;;0.20;0.20;;;;;;;-145.06;100.00;60892.56;5920729;23;20010;-91
2022/09/27 22:36:37;;;;;;;0.30;0.20;;;;;;;-145.06;100.00;60892.56;5922896;23;20010;-92
2022/09/27 22:39:16;;;;;;;0.25;0.20;;;;;;;-145.06;100.00;60892.56;5922583;23;20010;-92
2022/09/27 22:41:57;;;;;;;0.20;0.20;;;;;;;-145.06;100.00;60892.56;5922525;23;20006;-95
2022/09/27 22:44:38;;;;;;;0.17;0.17;;;;;;;-145.06;100.00;60892.56;5922844;23;20010;-92
2022/09/27 22:47:17;;;;;;;0.20;0.20;;;;;;;-145.06;100.00;60892.56;5922589;23;20010;-91
2022/09/27 22:49:59;;;;;;;0.50;0.30;;;;;;;-145.06;100.00;60892.56;5922687;23;20006;-93
2022/09/27 22:52:38;;;;;;;0.10;0.10;;;;;;;-145.06;100.00;60892.56;5922514;23;20166;-92
2022/09/27 22:55:17;;;;;;;0.20;0.20;;;;;;;-145.06;100.00;60892.56;5922377;23;20010;-92
2022/09/27 22:57:56;;;;;;;0.30;0.20;;;;;;;-145.06;100.00;60892.56;5922749;23;20476;-92
2022/09/27 23:00:37;;;;;;;0.30;0.30;;;;;;;-145.06;100.00;60892.56;5922632;23;20005;-91
2022/09/27 23:03:16;;;;;;;0.35;0.30;;;;;;;-145.06;100.00;60892.56;5922226;23;20077;-91
2022/09/27 23:06:01;;;;;;;0.15;0.15;;;;;;;-145.06;100.00;60892.56;5922810;23;20437;-92
2022/09/27 23:08:41;;;;;;;0.73;0.20;;;;;;;-145.06;100.00;60892.56;5922222;23;20010;-92
2022/09/27 23:11:21;;;;;;;;;;;;;;;-145.06;100.00;60892.56;5923501;23;20009;-92
2022/09/27 23:14:04;;;;;;;0.25;0.25;;;;;;;-145.06;100.00;60892.56;5923038;23;19928;-93
2022/09/27 23:16:43;;;;;;;0.20;0.20;;;;;;;-145.06;100.00;60892.56;5922415;23;20018;-91
2022/09/27 23:19:24;;;;;;;0.22;0.20;;;;;;;-145.06;100.00;60892.56;5922333;23;20424;-91
2022/09/27 23:22:04;;;;;;;0.30;0.28;;;;;;;-145.06;100.00;60892.56;5923163;23;20010;-91
2022/09/27 23:24:43;;;;;;;0.57;0.40;;;;;;;-145.06;100.00;60892.56;5922349;23;20014;-92
2022/09/27 23:30:20;;;;;;;0.20;0.20;;;;;;;-145.06;100.00;60892.56;5933056;23;20009;-92
2022/09/27 23:32:59;;;;;;;0.22;0.22;;;;;;;-145.06;100.00;60892.56;5922412;23;20010;-92
2022/09/27 23:35:38;;;;;;;0.20;0.20;;;;;;;-145.06;100.00;60892.56;5921803;23;20077;-93
2022/09/27 23:38:17;;;;;;;0.30;0.30;;;;;;;-145.06;100.00;60892.56;5921761;23;20013;-91
2022/09/27 23:40:59;;;;;;;0.47;0.30;;;;;;;-145.06;100.00;60892.56;5922670;23;20006;-91
2022/09/27 23:43:38;;;;;;;0.43;0.32;;;;;;;-145.06;100.00;60892.56;5922003;23;20006;-94
2022/09/27 23:46:17;;;;;;;0.28;0.20;;;;;;;-145.06;100.00;60892.56;5921967;23;20033;-92
2022/09/27 23:48:57;;;;;;;0.40;0.40;;;;;;;-145.06;100.00;60892.56;5922219;23;20005;-91
2022/09/27 23:51:37;;;;;;;;;;;;;;;-145.06;100.00;60892.56;5923066;23;20006;-93
2022/09/27 23:54:15;;;;;;;1.15;0.30;;;;;;;-145.06;100.00;60892.56;5922033;23;19909;-93
2022/09/27 23:56:55;;;;;;;0.50;0.20;;;;;;;-145.06;100.00;60892.56;5921207;23;20006;-93
2022/09/27 23:59:34;;;;;;;0.28;0.28;;;;;;;-145.06;100.00;60892.56;5921753;23;20077;-91
